Terminal Aerodrome Forecast
Issued by NWS

Home | Current Version | Previous Version | Text Only | Print | Product List | Glossary On
Versions: 1 2 3 4 5 6 7 8 9 10 11 12 13 14 15 16 17 18 19
000
FTUS44 KLIX 011120
TAFMSY
TAF
KMSY 011120Z 0112/0212 15005KT 5SM BR BKN014 OVC020
     FM011500 16010KT P6SM +TSRA OVC020CB
     FM011800 16009KT P6SM +SHRA OVC040
     FM020000 16009KT P6SM BKN040
     FM020200 15007KT P6SM OVC015
     FM020600 14005KT P6SM BKN010=

USA.gov is the U.S. government's official web portal to all federal, state and local government web resources and services.